Time;durP1;ratioP1;P1;durP2;ratioP2;P2;SDS_P1;SDS_P2;PMS_P1;PMS_P2;Temp;Humidity;BMP_temperature;BMP_pressure;BME280_temperature;BME280_humidity;BME280_pressure;Samples;Min_cycle;Max_cycle;Signal;HPM_P1;HPM_P2
2022/12/05 00:02:08;;;;;;;29.37;14.37;;;;;;;;;;5018415;28;20181;-85
2022/12/05 00:05:12;;;;;;;27.20;13.73;;;;;;;;;;5006221;28;20177;-85
2022/12/05 00:08:17;;;;;;;25.33;13.00;;;;;;;;;;4983400;28;20616;-85
2022/12/05 00:11:23;;;;;;;25.20;14.13;;;;;;;;;;4983583;28;20186;-85
2022/12/05 00:14:28;;;;;;;30.67;13.87;;;;;;;;;;5006702;28;20186;-85
2022/12/05 00:17:32;;;;;;;27.43;13.13;;;;;;;;;;4984601;28;20704;-86
2022/12/05 00:20:36;;;;;;;28.43;13.87;;;;;;;;;;5006229;28;20181;-85
2022/12/05 00:23:41;;;;;;;30.80;13.70;;;;;;;;;;4984305;28;20525;-85
2022/12/05 00:26:45;;;;;;;27.47;13.57;;;;;;;;;;4983834;28;20213;-85
2022/12/05 00:29:48;;;;;;;30.60;14.63;;;;;;;;;;4994600;28;20197;-85
2022/12/05 00:32:53;;;;;;;32.30;13.60;;;;;;;;;;4994430;28;20182;-85
2022/12/05 00:36:05;;;;;;;27.23;13.50;;;;;;;;;;5005809;28;20205;-85
2022/12/05 00:39:13;;;;;;;26.57;13.13;;;;;;;;;;4994306;28;20186;-85
2022/12/05 00:42:17;;;;;;;27.37;12.83;;;;;;;;;;4993566;28;20197;-85
2022/12/05 00:45:21;;;;;;;30.00;14.43;;;;;;;;;;4982936;28;20182;-85
2022/12/05 00:48:30;;;;;;;27.27;14.10;;;;;;;;;;4994035;28;20616;-85
2022/12/05 00:51:37;;;;;;;25.07;13.70;;;;;;;;;;4994021;28;20182;-85
2022/12/05 00:54:42;;;;;;;26.30;13.27;;;;;;;;;;4994049;28;20181;-85
2022/12/05 00:57:46;;;;;;;27.07;12.80;;;;;;;;;;5005130;28;20225;-85
2022/12/05 01:00:50;;;;;;;27.07;13.47;;;;;;;;;;5005047;28;20204;-85
2022/12/05 01:03:56;;;;;;;22.93;11.63;;;;;;;;;;4993789;28;20201;-85
2022/12/05 01:07:00;;;;;;;21.43;11.70;;;;;;;;;;4992866;28;20225;-85
2022/12/05 01:10:05;;;;;;;21.70;11.10;;;;;;;;;;4993692;28;20521;-85
2022/12/05 01:13:10;;;;;;;21.60;11.13;;;;;;;;;;5047541;22;20219;-77
2022/12/05 01:16:20;;;;;;;19.93;10.80;;;;;;;;;;4996296;28;20228;-79
2022/12/05 01:19:30;;;;;;;19.00;10.80;;;;;;;;;;5000473;28;20181;-78
2022/12/05 01:22:34;;;;;;;17.43;9.63;;;;;;;;;;5023777;28;20217;-79
2022/12/05 01:25:43;;;;;;;16.60;9.83;;;;;;;;;;4989356;28;20178;-79
2022/12/05 01:28:48;;;;;;;19.03;10.07;;;;;;;;;;5022850;28;20201;-79
2022/12/05 01:31:53;;;;;;;15.90;9.10;;;;;;;;;;5023858;28;20233;-79
2022/12/05 01:34:58;;;;;;;16.33;9.20;;;;;;;;;;5011739;28;20178;-79
2022/12/05 01:38:03;;;;;;;18.37;10.53;;;;;;;;;;5000595;28;20632;-79
2022/12/05 01:41:10;;;;;;;15.63;9.40;;;;;;;;;;5000557;28;20546;-79
2022/12/05 01:44:14;;;;;;;19.10;10.87;;;;;;;;;;5000866;28;20188;-79
2022/12/05 01:47:21;;;;;;;19.00;9.80;;;;;;;;;;5000660;28;20178;-79
2022/12/05 01:50:26;;;;;;;18.27;10.13;;;;;;;;;;4988831;28;20197;-79
2022/12/05 01:53:30;;;;;;;16.97;9.57;;;;;;;;;;5012340;28;20178;-79
2022/12/05 01:56:35;;;;;;;17.43;10.33;;;;;;;;;;5011815;28;20588;-79
2022/12/05 01:59:49;;;;;;;16.67;8.87;;;;;;;;;;5012325;28;20181;-79
2022/12/05 02:02:57;;;;;;;17.20;8.67;;;;;;;;;;5012246;28;20205;-79
2022/12/05 02:06:03;;;;;;;19.90;9.03;;;;;;;;;;5013198;28;20209;-79
2022/12/05 02:09:08;;;;;;;15.87;8.40;;;;;;;;;;5024868;28;20544;-78
2022/12/05 02:12:12;;;;;;;16.27;9.10;;;;;;;;;;5012665;28;20228;-79
2022/12/05 02:15:42;;;;;;;20.83;9.50;;;;;;;;;;5011783;28;20213;-79
2022/12/05 02:19:24;;;;;;;16.83;8.93;;;;;;;;;;5023070;28;20189;-78
2022/12/05 02:22:31;;;;;;;16.67;9.27;;;;;;;;;;5021760;28;20222;-79
2022/12/05 02:26:17;;;;;;;19.53;9.57;;;;;;;;;;5017746;28;20205;-78
2022/12/05 02:29:40;;;;;;;15.90;8.87;;;;;;;;;;5000932;28;20202;-78
2022/12/05 02:33:07;;;;;;;18.30;9.23;;;;;;;;;;4979348;28;20186;-78
2022/12/05 02:36:19;;;;;;;16.60;9.50;;;;;;;;;;4990618;28;20210;-78
2022/12/05 02:39:34;;;;;;;15.83;8.83;;;;;;;;;;4984525;28;20186;-78
2022/12/05 02:42:59;;;;;;;14.67;8.50;;;;;;;;;;4984789;28;21171;-78
2022/12/05 02:46:10;;;;;;;14.27;7.83;;;;;;;;;;4995835;28;20543;-78
2022/12/05 02:49:24;;;;;;;15.13;8.70;;;;;;;;;;4996085;28;20629;-78
2022/12/05 02:52:29;;;;;;;13.57;8.07;;;;;;;;;;4973270;28;20629;-78
2022/12/05 02:55:34;;;;;;;14.90;8.37;;;;;;;;;;4995980;28;20593;-78
2022/12/05 02:58:44;;;;;;;15.70;8.00;;;;;;;;;;4987946;28;20601;-78
2022/12/05 03:01:48;;;;;;;16.47;8.93;;;;;;;;;;4987953;28;20632;-78
2022/12/05 03:04:56;;;;;;;13.77;8.53;;;;;;;;;;4987531;28;20541;-78
2022/12/05 03:08:03;;;;;;;18.70;9.90;;;;;;;;;;4998579;28;21159;-78
2022/12/05 03:11:08;;;;;;;16.53;9.53;;;;;;;;;;4999366;28;20624;-78
2022/12/05 03:14:16;;;;;;;17.13;9.10;;;;;;;;;;4976579;28;20608;-78
2022/12/05 03:17:25;;;;;;;18.67;9.50;;;;;;;;;;4976522;28;21194;-78
2022/12/05 03:20:37;;;;;;;19.70;11.43;;;;;;;;;;4987427;28;20596;-78
2022/12/05 03:23:46;;;;;;;24.67;11.73;;;;;;;;;;4998876;28;20549;-78
2022/12/05 03:27:10;;;;;;;19.87;11.47;;;;;;;;;;4998053;28;20542;-78
2022/12/05 03:30:16;;;;;;;21.47;11.53;;;;;;;;;;4986741;28;20545;-78
2022/12/05 03:33:24;;;;;;;24.93;11.50;;;;;;;;;;4976058;28;20551;-78
2022/12/05 03:36:38;;;;;;;21.47;9.73;;;;;;;;;;4986559;28;20593;-78
2022/12/05 03:39:48;;;;;;;21.03;10.93;;;;;;;;;;4987119;28;21068;-78
2022/12/05 03:43:01;;;;;;;21.27;10.10;;;;;;;;;;4986654;28;20601;-78
2022/12/05 03:46:28;;;;;;;17.60;9.53;;;;;;;;;;4997825;28;20592;-78
2022/12/05 03:49:37;;;;;;;16.23;9.10;;;;;;;;;;4975518;28;20550;-78
2022/12/05 03:52:46;;;;;;;21.10;10.47;;;;;;;;;;4975143;28;20601;-78
2022/12/05 03:56:01;;;;;;;17.03;9.30;;;;;;;;;;4975241;28;20641;-78
2022/12/05 03:59:20;;;;;;;17.73;9.50;;;;;;;;;;4975265;28;20886;-78
2022/12/05 04:02:33;;;;;;;17.30;8.67;;;;;;;;;;4997626;28;20625;-78
2022/12/05 04:05:43;;;;;;;16.10;8.50;;;;;;;;;;4986020;28;20542;-78
2022/12/05 04:08:53;;;;;;;19.33;9.73;;;;;;;;;;4985318;28;20601;-78
2022/12/05 04:12:02;;;;;;;17.43;9.67;;;;;;;;;;4997248;28;20628;-78
2022/12/05 04:15:15;;;;;;;20.80;9.33;;;;;;;;;;4997132;28;20613;-78
2022/12/05 04:18:23;;;;;;;20.53;9.97;;;;;;;;;;4996920;28;20866;-78
2022/12/05 04:21:39;;;;;;;20.27;10.40;;;;;;;;;;4996751;28;20616;-78
2022/12/05 04:28:21;;;;;;;21.77;11.13;;;;;;;;;;4986710;28;20542;-79
2022/12/05 04:31:34;;;;;;;19.73;9.63;;;;;;;;;;4986331;28;20633;-79
2022/12/05 04:34:40;;;;;;;20.33;10.53;;;;;;;;;;4989166;28;20546;-79
2022/12/05 04:37:48;;;;;;;21.93;11.33;;;;;;;;;;4994686;28;20657;-79
2022/12/05 04:40:55;;;;;;;21.20;11.17;;;;;;;;;;5002876;28;20629;-79
2022/12/05 04:44:05;;;;;;;25.97;11.73;;;;;;;;;;4999232;28;20604;-79
2022/12/05 04:47:13;;;;;;;22.07;11.50;;;;;;;;;;4988391;28;20545;-79
2022/12/05 04:50:19;;;;;;;18.80;10.27;;;;;;;;;;4988527;28;20923;-80
2022/12/05 04:53:27;;;;;;;22.37;12.37;;;;;;;;;;4988003;28;20664;-80
2022/12/05 04:56:34;;;;;;;20.70;11.00;;;;;;;;;;4965033;28;20640;-78
2022/12/05 04:59:37;;;;;;;21.00;10.60;;;;;;;;;;4975570;28;20605;-78
2022/12/05 05:02:51;;;;;;;23.27;11.27;;;;;;;;;;4997620;28;20549;-78
2022/12/05 05:05:56;;;;;;;23.87;12.03;;;;;;;;;;4974195;28;20546;-78
2022/12/05 05:09:00;;;;;;;20.07;10.90;;;;;;;;;;4973756;28;20550;-78
2022/12/05 05:12:05;;;;;;;22.87;11.60;;;;;;;;;;4985197;28;20625;-79
2022/12/05 05:15:09;;;;;;;21.27;11.00;;;;;;;;;;4974668;28;20693;-79
2022/12/05 05:18:13;;;;;;;23.77;11.40;;;;;;;;;;4974481;28;20664;-79
2022/12/05 05:21:19;;;;;;;21.87;10.83;;;;;;;;;;4984844;28;20997;-78
2022/12/05 05:24:25;;;;;;;23.70;11.83;;;;;;;;;;4985297;28;20546;-79
2022/12/05 05:27:29;;;;;;;25.57;11.73;;;;;;;;;;5009905;28;20580;-78
2022/12/05 05:30:32;;;;;;;25.53;12.83;;;;;;;;;;5017191;28;20553;-79
2022/12/05 05:33:37;;;;;;;25.07;13.60;;;;;;;;;;5003938;28;20975;-78
2022/12/05 05:36:42;;;;;;;24.70;12.70;;;;;;;;;;5003800;28;20589;-78
2022/12/05 05:39:46;;;;;;;23.37;12.53;;;;;;;;;;5003654;28;20544;-78
2022/12/05 05:42:50;;;;;;;20.30;11.23;;;;;;;;;;5003652;28;20877;-78
2022/12/05 05:45:55;;;;;;;20.03;11.23;;;;;;;;;;5016444;28;20537;-79
2022/12/05 05:48:59;;;;;;;20.53;11.50;;;;;;;;;;4993205;28;20540;-79
2022/12/05 05:52:04;;;;;;;20.77;11.47;;;;;;;;;;5004197;28;20627;-79
2022/12/05 05:55:08;;;;;;;21.10;10.93;;;;;;;;;;5004185;28;20548;-79
2022/12/05 05:58:12;;;;;;;20.97;11.40;;;;;;;;;;5016363;28;21236;-79
2022/12/05 06:01:21;;;;;;;21.63;10.40;;;;;;;;;;4992782;28;20628;-79
2022/12/05 06:04:25;;;;;;;19.17;10.50;;;;;;;;;;5016099;28;20545;-79
2022/12/05 06:07:30;;;;;;;20.23;10.13;;;;;;;;;;4993513;28;20544;-79
2022/12/05 06:10:34;;;;;;;20.03;11.20;;;;;;;;;;4993469;28;20181;-79
2022/12/05 06:13:38;;;;;;;28.93;13.77;;;;;;;;;;4992954;28;20205;-79
2022/12/05 06:16:43;;;;;;;18.97;11.23;;;;;;;;;;5004264;28;20680;-79
2022/12/05 06:19:47;;;;;;;17.77;10.07;;;;;;;;;;5016203;28;20181;-79
2022/12/05 06:22:51;;;;;;;21.00;10.67;;;;;;;;;;4991601;28;20609;-78
2022/12/05 06:25:55;;;;;;;18.60;10.67;;;;;;;;;;4983656;28;20597;-78
2022/12/05 06:28:59;;;;;;;18.00;10.07;;;;;;;;;;4995769;28;20542;-78
2022/12/05 06:32:04;;;;;;;20.00;10.10;;;;;;;;;;4997071;28;20620;-79
2022/12/05 06:35:14;;;;;;;16.83;9.87;;;;;;;;;;4989034;28;21072;-79
2022/12/05 06:38:18;;;;;;;20.63;10.33;;;;;;;;;;4988283;28;20597;-79
2022/12/05 06:41:26;;;;;;;18.93;10.67;;;;;;;;;;4998690;28;20217;-79
2022/12/05 06:44:39;;;;;;;19.53;10.40;;;;;;;;;;4999176;28;20597;-79
2022/12/05 06:47:46;;;;;;;17.03;9.80;;;;;;;;;;4998914;28;20907;-79
2022/12/05 06:50:52;;;;;;;18.20;10.37;;;;;;;;;;4987467;28;20214;-79
2022/12/05 06:53:56;;;;;;;21.77;11.97;;;;;;;;;;4987439;28;20537;-79
2022/12/05 06:57:01;;;;;;;24.53;11.87;;;;;;;;;;4987380;28;20957;-79
2022/12/05 07:03:28;;;;;;;20.33;11.77;;;;;;;;;;4998413;28;20546;-79
2022/12/05 07:06:34;;;;;;;22.50;11.57;;;;;;;;;;4998541;28;20525;-79
2022/12/05 07:09:50;;;;;;;22.50;11.83;;;;;;;;;;4987007;28;20182;-79
2022/12/05 07:12:55;;;;;;;25.03;13.73;;;;;;;;;;4986845;28;20601;-79
2022/12/05 07:15:59;;;;;;;26.33;15.37;;;;;;;;;;4987018;28;20186;-78
2022/12/05 07:19:03;;;;;;;21.10;11.80;;;;;;;;;;4986829;28;20654;-79
2022/12/05 07:22:08;;;;;;;25.73;12.87;;;;;;;;;;4998534;28;20221;-79
2022/12/05 07:25:12;;;;;;;21.97;11.10;;;;;;;;;;4986469;28;20182;-79
2022/12/05 07:28:15;;;;;;;24.67;12.57;;;;;;;;;;4997972;28;20546;-79
2022/12/05 07:31:21;;;;;;;23.70;12.13;;;;;;;;;;4986451;28;20217;-79
2022/12/05 07:34:26;;;;;;;22.80;11.50;;;;;;;;;;4986432;28;20174;-79
2022/12/05 07:37:30;;;;;;;23.00;12.00;;;;;;;;;;4985967;28;20210;-79
2022/12/05 07:40:36;;;;;;;22.97;12.10;;;;;;;;;;4997284;28;20905;-79
2022/12/05 07:43:40;;;;;;;26.40;12.83;;;;;;;;;;4996122;28;20202;-79
2022/12/05 07:46:44;;;;;;;24.83;11.97;;;;;;;;;;4986039;28;20206;-79
2022/12/05 07:49:49;;;;;;;28.93;15.10;;;;;;;;;;4986369;28;20515;-79
2022/12/05 07:52:53;;;;;;;24.53;14.80;;;;;;;;;;4985917;28;20626;-79
2022/12/05 07:55:59;;;;;;;25.73;13.93;;;;;;;;;;4997225;28;20613;-79
2022/12/05 07:59:03;;;;;;;25.00;13.43;;;;;;;;;;5020068;22;20235;-87
2022/12/05 08:02:07;;;;;;;23.37;12.67;;;;;;;;;;5033378;28;20200;-87
2022/12/05 08:05:12;;;;;;;23.17;12.00;;;;;;;;;;5022070;28;20180;-86
2022/12/05 08:08:16;;;;;;;30.53;16.10;;;;;;;;;;5033004;28;20172;-87
2022/12/05 08:11:22;;;;;;;47.60;33.30;;;;;;;;;;5025019;28;20180;-86
2022/12/05 08:14:26;;;;;;;79.13;52.13;;;;;;;;;;5024296;28;20196;-86
2022/12/05 08:17:32;;;;;;;40.00;20.97;;;;;;;;;;5013129;28;20532;-87
2022/12/05 08:20:36;;;;;;;28.80;16.03;;;;;;;;;;5013102;28;20213;-86
2022/12/05 08:23:42;;;;;;;25.10;13.47;;;;;;;;;;5001561;28;20200;-86
2022/12/05 08:26:45;;;;;;;27.70;13.10;;;;;;;;;;5013421;28;20205;-86
2022/12/05 08:29:50;;;;;;;25.60;13.20;;;;;;;;;;5013061;28;20212;-86
2022/12/05 08:32:54;;;;;;;30.50;16.03;;;;;;;;;;5013115;28;20177;-86
2022/12/05 08:36:03;;;;;;;35.50;14.17;;;;;;;;;;5024779;28;20173;-87
2022/12/05 08:39:10;;;;;;;63.50;32.23;;;;;;;;;;5012024;28;20224;-87
2022/12/05 08:42:15;;;;;;;32.80;17.57;;;;;;;;;;5012356;28;20542;-88
2022/12/05 08:45:22;;;;;;;27.70;14.77;;;;;;;;;;5023550;28;20512;-87
2022/12/05 08:48:28;;;;;;;35.83;14.10;;;;;;;;;;5023874;28;20177;-87
2022/12/05 08:51:32;;;;;;;45.73;23.83;;;;;;;;;;5012383;28;20177;-88
2022/12/05 08:54:36;;;;;;;30.70;15.57;;;;;;;;;;5017131;28;20199;-86
2022/12/05 08:57:40;;;;;;;31.13;15.30;;;;;;;;;;5043507;28;20208;-88
2022/12/05 09:00:45;;;;;;;31.97;14.57;;;;;;;;;;5031609;28;20227;-87
2022/12/05 09:03:49;;;;;;;29.67;14.17;;;;;;;;;;5054628;28;20180;-88
2022/12/05 09:06:53;;;;;;;28.80;12.90;;;;;;;;;;5031362;28;20184;-87
2022/12/05 09:09:57;;;;;;;29.27;14.53;;;;;;;;;;5031528;28;20212;-87
2022/12/05 09:13:01;;;;;;;29.03;16.53;;;;;;;;;;5043410;28;20199;-87
2022/12/05 09:16:14;;;;;;;31.17;15.43;;;;;;;;;;5031752;28;20204;-87
2022/12/05 09:19:19;;;;;;;35.23;17.43;;;;;;;;;;5029410;28;20223;-87
2022/12/05 09:22:23;;;;;;;33.67;16.20;;;;;;;;;;5024270;28;20200;-88
2022/12/05 09:25:27;;;;;;;29.03;14.77;;;;;;;;;;5031285;28;20520;-88
2022/12/05 09:28:33;;;;;;;30.83;14.20;;;;;;;;;;5031264;28;20180;-88
2022/12/05 09:31:37;;;;;;;28.40;14.40;;;;;;;;;;5031727;28;20185;-88
2022/12/05 09:34:41;;;;;;;28.57;13.43;;;;;;;;;;5031506;28;20520;-87
2022/12/05 09:37:45;;;;;;;28.07;14.63;;;;;;;;;;5022983;28;20201;-88
2022/12/05 09:40:59;;;;;;;30.97;14.13;;;;;;;;;;5016601;28;20219;-88
2022/12/05 09:44:06;;;;;;;29.57;13.57;;;;;;;;;;5019676;28;20517;-88
2022/12/05 09:47:32;;;;;;;31.67;15.17;;;;;;;;;;5019418;28;20177;-88
2022/12/05 09:50:51;;;;;;;27.27;14.10;;;;;;;;;;5042107;28;20560;-89
2022/12/05 09:53:56;;;;;;;28.77;14.30;;;;;;;;;;5042216;28;20189;-89
2022/12/05 09:57:02;;;;;;;27.90;14.37;;;;;;;;;;5042089;28;20184;-88
2022/12/05 10:00:08;;;;;;;25.97;13.50;;;;;;;;;;5030526;28;20216;-89
2022/12/05 10:03:31;;;;;;;29.87;14.07;;;;;;;;;;5041982;28;20531;-89
2022/12/05 10:07:06;;;;;;;27.23;13.07;;;;;;;;;;5018902;28;20184;-89
2022/12/05 10:10:37;;;;;;;29.70;14.07;;;;;;;;;;5042681;28;20563;-89
2022/12/05 10:13:54;;;;;;;27.77;14.10;;;;;;;;;;5022463;28;20169;-88
2022/12/05 10:17:09;;;;;;;30.10;14.57;;;;;;;;;;5011138;28;20177;-89
2022/12/05 10:20:23;;;;;;;27.60;14.47;;;;;;;;;;5022888;28;20204;-87
2022/12/05 10:23:29;;;;;;;26.10;13.40;;;;;;;;;;5011336;28;20536;-88
2022/12/05 10:26:44;;;;;;;31.13;17.43;;;;;;;;;;5010317;28;20200;-87
2022/12/05 10:29:51;;;;;;;29.87;16.70;;;;;;;;;;5011215;28;20221;-87
2022/12/05 10:33:20;;;;;;;25.33;14.20;;;;;;;;;;5016612;28;20204;-87
2022/12/05 10:36:25;;;;;;;27.97;15.70;;;;;;;;;;5031397;28;20619;-87
2022/12/05 10:39:29;;;;;;;23.47;13.57;;;;;;;;;;5041997;28;20220;-87
2022/12/05 10:42:34;;;;;;;25.53;13.37;;;;;;;;;;5041699;28;20203;-87
2022/12/05 10:45:43;;;;;;;23.67;13.00;;;;;;;;;;5042288;28;20200;-88
2022/12/05 10:48:47;;;;;;;26.87;14.17;;;;;;;;;;5023401;28;20173;-87
2022/12/05 10:51:51;;;;;;;34.30;14.37;;;;;;;;;;5022310;28;20181;-87
2022/12/05 10:55:05;;;;;;;24.60;13.50;;;;;;;;;;5010618;28;20181;-87
2022/12/05 10:58:09;;;;;;;22.77;13.27;;;;;;;;;;4999365;28;20248;-87
2022/12/05 11:01:14;;;;;;;21.57;12.93;;;;;;;;;;4999782;28;20185;-87
2022/12/05 11:04:25;;;;;;;25.23;13.50;;;;;;;;;;5021967;28;20185;-86
2022/12/05 11:07:30;;;;;;;29.13;14.13;;;;;;;;;;5000129;28;20185;-87
2022/12/05 11:10:42;;;;;;;26.10;14.00;;;;;;;;;;5021954;28;20209;-86
2022/12/05 11:13:56;;;;;;;25.70;14.10;;;;;;;;;;5024529;28;20181;-87
2022/12/05 11:17:03;;;;;;;22.93;13.37;;;;;;;;;;5008751;28;20527;-86
2022/12/05 11:20:16;;;;;;;26.53;15.10;;;;;;;;;;5011445;28;20561;-86
2022/12/05 11:23:26;;;;;;;26.60;14.40;;;;;;;;;;5021909;28;20204;-86
2022/12/05 11:26:38;;;;;;;25.07;13.50;;;;;;;;;;5024233;28;20177;-85
2022/12/05 11:29:52;;;;;;;23.30;13.77;;;;;;;;;;5035965;28;20212;-84
2022/12/05 11:33:18;;;;;;;28.17;15.13;;;;;;;;;;5059389;28;20196;-85
2022/12/05 11:36:43;;;;;;;23.13;13.23;;;;;;;;;;5053592;28;20185;-85
2022/12/05 11:39:47;;;;;;;26.57;14.43;;;;;;;;;;5053312;28;20232;-86
2022/12/05 11:43:14;;;;;;;26.50;15.20;;;;;;;;;;5054430;28;20184;-86
2022/12/05 11:46:40;;;;;;;26.20;14.83;;;;;;;;;;5042948;28;20185;-86
2022/12/05 11:50:11;;;;;;;26.47;15.33;;;;;;;;;;5053644;28;20216;-86
2022/12/05 11:53:39;;;;;;;27.53;15.67;;;;;;;;;;5052527;28;20180;-86
2022/12/05 11:56:57;;;;;;;26.10;13.97;;;;;;;;;;5039843;28;20180;-85
2022/12/05 12:00:08;;;;;;;25.63;14.47;;;;;;;;;;5038356;28;20678;-86
2022/12/05 12:03:33;;;;;;;25.50;15.40;;;;;;;;;;5038848;28;20184;-86
2022/12/05 12:07:05;;;;;;;29.30;15.67;;;;;;;;;;5060513;28;20180;-86
2022/12/05 12:10:18;;;;;;;29.43;15.37;;;;;;;;;;5049273;28;20211;-86
2022/12/05 12:13:44;;;;;;;26.40;14.83;;;;;;;;;;5047764;28;20184;-86
2022/12/05 12:17:08;;;;;;;24.63;14.83;;;;;;;;;;5036956;28;20193;-86
2022/12/05 12:20:24;;;;;;;23.87;13.83;;;;;;;;;;5027857;28;20229;-87
2022/12/05 12:24:21;;;;;;;24.20;14.60;;;;;;;;;;5039149;28;20197;-86
2022/12/05 12:27:37;;;;;;;26.53;15.27;;;;;;;;;;4995921;28;20200;-86
2022/12/05 12:31:06;;;;;;;23.67;14.03;;;;;;;;;;5036993;28;20243;-86
2022/12/05 12:34:26;;;;;;;24.83;14.77;;;;;;;;;;5026090;28;20188;-86
2022/12/05 12:38:08;;;;;;;27.20;14.37;;;;;;;;;;5014704;28;20686;-87
2022/12/05 12:41:31;;;;;;;23.53;13.50;;;;;;;;;;5025191;28;20181;-86
2022/12/05 12:44:54;;;;;;;25.57;13.17;;;;;;;;;;5024921;28;20648;-86
2022/12/05 12:48:08;;;;;;;22.80;14.30;;;;;;;;;;5026131;28;20182;-86
2022/12/05 12:51:13;;;;;;;22.97;13.80;;;;;;;;;;5014044;28;20189;-87
2022/12/05 12:54:53;;;;;;;22.47;13.80;;;;;;;;;;5014795;28;20177;-87
2022/12/05 12:58:41;;;;;;;23.40;13.97;;;;;;;;;;5013571;28;20519;-87
2022/12/05 13:02:18;;;;;;;21.27;13.07;;;;;;;;;;4984692;28;20204;-86
2022/12/05 13:05:38;;;;;;;24.07;13.70;;;;;;;;;;5013818;28;20181;-87
2022/12/05 13:09:13;;;;;;;22.70;13.47;;;;;;;;;;5025273;28;20177;-86
2022/12/05 13:12:23;;;;;;;21.43;12.67;;;;;;;;;;5013816;28;20624;-86
2022/12/05 13:15:53;;;;;;;23.33;13.67;;;;;;;;;;5013749;28;20526;-86
2022/12/05 13:18:58;;;;;;;22.00;14.80;;;;;;;;;;5030263;28;20224;-86
2022/12/05 13:22:04;;;;;;;23.17;13.83;;;;;;;;;;5013268;28;20201;-86
2022/12/05 13:25:16;;;;;;;20.67;12.77;;;;;;;;;;5002659;28;20192;-85
2022/12/05 13:28:30;;;;;;;19.33;12.37;;;;;;;;;;5036370;28;20173;-86
2022/12/05 13:31:40;;;;;;;23.73;12.97;;;;;;;;;;5024489;28;20671;-86
2022/12/05 13:34:47;;;;;;;21.03;12.67;;;;;;;;;;5002555;28;20181;-86
2022/12/05 13:44:51;;;;;;;24.73;13.17;;;;;;;;;;5023682;28;20628;-86
2022/12/05 13:48:06;;;;;;;21.60;12.87;;;;;;;;;;5023185;28;20197;-86
2022/12/05 13:51:21;;;;;;;21.60;13.43;;;;;;;;;;5012019;28;20197;-87
2022/12/05 13:54:28;;;;;;;18.33;12.67;;;;;;;;;;5012096;28;20182;-86
2022/12/05 13:57:38;;;;;;;21.53;13.37;;;;;;;;;;5024076;28;20185;-85
2022/12/05 14:00:42;;;;;;;21.63;12.53;;;;;;;;;;5034255;28;20228;-86
2022/12/05 14:03:46;;;;;;;23.97;16.53;;;;;;;;;;5071383;23;20227;-87
2022/12/05 14:06:55;;;;;;;22.17;14.17;;;;;;;;;;5061603;28;20199;-87
2022/12/05 14:09:59;;;;;;;19.43;12.07;;;;;;;;;;5062921;28;20168;-88
2022/12/05 14:13:16;;;;;;;19.40;12.40;;;;;;;;;;5050582;28;20211;-88
2022/12/05 14:16:23;;;;;;;19.73;11.47;;;;;;;;;;5050342;28;20621;-87
2022/12/05 14:20:13;;;;;;;20.20;12.07;;;;;;;;;;5052026;28;20223;-87
2022/12/05 14:23:24;;;;;;;20.23;11.90;;;;;;;;;;5052452;28;20559;-86
2022/12/05 14:26:40;;;;;;;18.67;11.33;;;;;;;;;;5062552;28;20531;-86
2022/12/05 14:30:34;;;;;;;23.17;12.77;;;;;;;;;;5040588;28;20521;-86
2022/12/05 14:33:39;;;;;;;20.57;12.53;;;;;;;;;;5013201;28;20228;-88
2022/12/05 14:37:10;;;;;;;19.77;12.67;;;;;;;;;;5062229;28;20512;-90
2022/12/05 14:40:27;;;;;;;20.00;12.03;;;;;;;;;;5039413;28;20211;-88
2022/12/05 14:43:33;;;;;;;23.83;15.77;;;;;;;;;;5040091;28;20207;-88
2022/12/05 14:46:43;;;;;;;23.70;15.30;;;;;;;;;;5040658;28;20171;-86
2022/12/05 14:49:53;;;;;;;29.53;21.50;;;;;;;;;;5042556;28;20184;-85
2022/12/05 14:53:19;;;;;;;33.93;27.63;;;;;;;;;;5054730;28;20215;-86
2022/12/05 14:56:26;;;;;;;28.13;20.57;;;;;;;;;;5049240;28;20171;-86
2022/12/05 15:00:15;;;;;;;24.37;16.70;;;;;;;;;;5049236;28;20199;-86
2022/12/05 15:03:31;;;;;;;22.97;14.17;;;;;;;;;;4981459;28;20222;-87
2022/12/05 15:11:27;;;;;;;20.00;13.37;;;;;;;;;;5064416;28;20192;-87
2022/12/05 15:14:42;;;;;;;19.80;12.57;;;;;;;;;;5042699;28;20215;-86
2022/12/05 15:18:08;;;;;;;20.93;12.60;;;;;;;;;;5053150;28;20184;-85
2022/12/05 15:21:22;;;;;;;20.37;13.13;;;;;;;;;;5038376;28;20555;-87
2022/12/05 15:24:26;;;;;;;24.63;16.30;;;;;;;;;;5033989;28;20220;-89
2022/12/05 15:27:31;;;;;;;19.67;13.90;;;;;;;;;;5044917;28;20180;-87
2022/12/05 15:30:39;;;;;;;23.07;14.10;;;;;;;;;;5041094;28;20172;-87
2022/12/05 15:33:54;;;;;;;20.30;13.80;;;;;;;;;;5036584;28;20220;-87
2022/12/05 15:37:12;;;;;;;24.53;15.13;;;;;;;;;;5048684;28;20180;-87
2022/12/05 15:40:20;;;;;;;25.40;14.43;;;;;;;;;;5048269;28;20212;-86
2022/12/05 15:43:27;;;;;;;20.27;13.33;;;;;;;;;;5047842;28;20212;-88
2022/12/05 15:46:31;;;;;;;17.40;11.87;;;;;;;;;;5030633;28;20184;-86
2022/12/05 15:49:35;;;;;;;21.10;13.03;;;;;;;;;;5040773;28;20196;-86
2022/12/05 15:52:47;;;;;;;20.83;13.53;;;;;;;;;;5036957;28;20204;-85
2022/12/05 15:55:57;;;;;;;18.13;11.97;;;;;;;;;;5035876;28;20626;-86
2022/12/05 15:59:14;;;;;;;19.17;12.07;;;;;;;;;;5046672;28;20177;-86
2022/12/05 16:02:24;;;;;;;18.97;12.10;;;;;;;;;;5024359;28;20204;-86
2022/12/05 16:05:31;;;;;;;19.40;12.57;;;;;;;;;;5023171;28;20188;-86
2022/12/05 16:08:42;;;;;;;20.57;12.53;;;;;;;;;;5035971;28;20172;-88
2022/12/05 16:12:16;;;;;;;18.40;12.50;;;;;;;;;;5035798;28;20521;-86
2022/12/05 16:15:26;;;;;;;43.43;25.73;;;;;;;;;;5030525;28;20207;-86
2022/12/05 16:18:31;;;;;;;25.00;15.70;;;;;;;;;;5035041;28;20192;-86
2022/12/05 16:21:39;;;;;;;39.17;21.53;;;;;;;;;;5035942;28;20173;-86
2022/12/05 16:25:11;;;;;;;23.43;13.93;;;;;;;;;;5038225;28;20211;-87
2022/12/05 16:28:20;;;;;;;18.83;12.13;;;;;;;;;;5039255;28;20184;-85
2022/12/05 16:31:25;;;;;;;19.13;11.67;;;;;;;;;;5036391;28;20192;-85
2022/12/05 16:34:32;;;;;;;20.37;11.17;;;;;;;;;;5037512;28;20215;-85
2022/12/05 16:37:37;;;;;;;21.77;11.50;;;;;;;;;;5048196;28;20176;-85
2022/12/05 16:40:44;;;;;;;17.23;10.17;;;;;;;;;;5026256;28;20208;-86
2022/12/05 16:43:51;;;;;;;17.07;10.77;;;;;;;;;;5032587;28;20216;-87
2022/12/05 16:46:56;;;;;;;19.10;12.30;;;;;;;;;;5042138;28;20517;-86
2022/12/05 16:50:29;;;;;;;30.80;17.80;;;;;;;;;;5036445;28;20512;-87
2022/12/05 16:53:33;;;;;;;50.00;30.87;;;;;;;;;;5034048;28;20561;-87
2022/12/05 16:56:38;;;;;;;35.53;24.87;;;;;;;;;;5033133;28;20181;-87
2022/12/05 16:59:44;;;;;;;29.97;22.23;;;;;;;;;;5032367;28;20204;-87
2022/12/05 17:02:48;;;;;;;17.77;11.87;;;;;;;;;;5031745;28;20204;-87
2022/12/05 17:05:53;;;;;;;17.60;12.30;;;;;;;;;;5041557;28;20207;-87
2022/12/05 17:08:58;;;;;;;17.53;12.17;;;;;;;;;;5055757;28;20180;-87
2022/12/05 17:12:19;;;;;;;15.40;9.97;;;;;;;;;;5032365;28;20172;-87
2022/12/05 17:15:24;;;;;;;14.47;9.77;;;;;;;;;;5043894;28;20173;-86
2022/12/05 17:18:28;;;;;;;13.47;8.93;;;;;;;;;;5032207;28;20184;-87
2022/12/05 17:21:33;;;;;;;12.80;9.17;;;;;;;;;;5032106;28;20212;-87
2022/12/05 17:24:37;;;;;;;12.03;8.37;;;;;;;;;;5032685;28;20212;-86
2022/12/05 17:27:41;;;;;;;15.03;9.87;;;;;;;;;;5044241;28;20623;-87
2022/12/05 17:30:46;;;;;;;13.93;9.50;;;;;;;;;;5043402;28;20192;-87
2022/12/05 17:33:52;;;;;;;14.60;9.87;;;;;;;;;;5042934;28;20215;-87
2022/12/05 17:36:56;;;;;;;12.33;8.97;;;;;;;;;;5043469;28;20176;-87
2022/12/05 17:40:00;;;;;;;14.90;9.70;;;;;;;;;;5031651;28;20678;-87
2022/12/05 17:43:04;;;;;;;12.50;9.50;;;;;;;;;;5031546;28;20215;-87
2022/12/05 17:46:08;;;;;;;13.03;9.33;;;;;;;;;;5044770;28;20516;-85
2022/12/05 17:49:14;;;;;;;12.87;8.77;;;;;;;;;;5032458;28;20188;-85
2022/12/05 17:52:19;;;;;;;11.93;8.67;;;;;;;;;;5032276;28;20188;-86
2022/12/05 17:55:25;;;;;;;11.63;8.53;;;;;;;;;;5044742;28;20176;-85
2022/12/05 17:58:30;;;;;;;13.80;8.47;;;;;;;;;;5032778;28;20179;-85
2022/12/05 18:01:34;;;;;;;10.00;7.53;;;;;;;;;;5046704;28;20208;-85
2022/12/05 18:04:39;;;;;;;12.80;8.57;;;;;;;;;;5032440;28;20697;-85
2022/12/05 18:07:44;;;;;;;12.63;8.27;;;;;;;;;;5032701;28;20191;-86
2022/12/05 18:10:49;;;;;;;12.57;8.47;;;;;;;;;;5031747;28;20173;-85
2022/12/05 18:13:55;;;;;;;12.10;8.87;;;;;;;;;;5043164;28;20219;-86
2022/12/05 18:16:59;;;;;;;15.43;10.63;;;;;;;;;;5020122;28;20181;-85
2022/12/05 18:20:06;;;;;;;21.83;16.10;;;;;;;;;;5031230;28;20192;-86
2022/12/05 18:23:11;;;;;;;23.87;16.73;;;;;;;;;;5031000;28;20215;-86
2022/12/05 18:26:15;;;;;;;17.67;12.17;;;;;;;;;;5036866;28;20191;-86
2022/12/05 18:29:19;;;;;;;13.93;9.67;;;;;;;;;;5051278;28;20203;-87
2022/12/05 18:32:24;;;;;;;14.70;10.60;;;;;;;;;;5027641;28;20199;-88
2022/12/05 18:35:40;;;;;;;11.93;9.20;;;;;;;;;;5021395;28;20191;-87
2022/12/05 18:38:53;;;;;;;13.33;9.30;;;;;;;;;;5019154;28;20172;-87
2022/12/05 18:41:57;;;;;;;15.53;9.77;;;;;;;;;;5035524;28;20208;-87
2022/12/05 18:45:02;;;;;;;13.53;10.43;;;;;;;;;;5023178;28;20195;-87
2022/12/05 18:48:07;;;;;;;14.67;9.93;;;;;;;;;;5019700;28;20176;-87